sensor_id;sensor_type;location;lat;lon;timestamp;temperature;humidity
41178;DHT22;26912;54.292;18.574;2022-10-16T00:00:42;26.30;55.00
41178;DHT22;26912;54.292;18.574;2022-10-16T00:03:28;26.30;54.80
41178;DHT22;26912;54.292;18.574;2022-10-16T00:05:59;26.40;54.60
41178;DHT22;26912;54.292;18.574;2022-10-16T00:08:27;26.40;54.70
41178;DHT22;26912;54.292;18.574;2022-10-16T00:10:59;26.40;54.70
41178;DHT22;26912;54.292;18.574;2022-10-16T00:13:26;26.60;54.50
41178;DHT22;26912;54.292;18.574;2022-10-16T00:15:56;26.60;54.40
41178;DHT22;26912;54.292;18.574;2022-10-16T00:18:24;26.40;54.50
41178;DHT22;26912;54.292;18.574;2022-10-16T00:20:50;26.30;54.80
41178;DHT22;26912;54.292;18.574;2022-10-16T00:23:17;26.10;55.40
41178;DHT22;26912;54.292;18.574;2022-10-16T00:25:44;25.90;55.90
41178;DHT22;26912;54.292;18.574;2022-10-16T00:28:11;25.90;56.30
41178;DHT22;26912;54.292;18.574;2022-10-16T00:30:38;25.90;56.50
41178;DHT22;26912;54.292;18.574;2022-10-16T00:33:05;25.90;56.50
41178;DHT22;26912;54.292;18.574;2022-10-16T00:35:31;25.90;56.70
41178;DHT22;26912;54.292;18.574;2022-10-16T00:37:58;25.80;56.80
41178;DHT22;26912;54.292;18.574;2022-10-16T00:40:24;25.60;57.30
41178;DHT22;26912;54.292;18.574;2022-10-16T00:42:51;25.50;57.80
41178;DHT22;26912;54.292;18.574;2022-10-16T00:45:17;25.40;57.80
41178;DHT22;26912;54.292;18.574;2022-10-16T00:47:45;25.30;58.20
41178;DHT22;26912;54.292;18.574;2022-10-16T00:50:25;25.60;58.00
41178;DHT22;26912;54.292;18.574;2022-10-16T00:52:53;25.60;58.50
41178;DHT22;26912;54.292;18.574;2022-10-16T00:55:20;25.60;57.70
41178;DHT22;26912;54.292;18.574;2022-10-16T00:57:48;25.80;57.70
41178;DHT22;26912;54.292;18.574;2022-10-16T01:00:19;25.80;57.60
41178;DHT22;26912;54.292;18.574;2022-10-16T01:02:56;25.80;57.60
41178;DHT22;26912;54.292;18.574;2022-10-16T01:05:30;25.90;57.80
41178;DHT22;26912;54.292;18.574;2022-10-16T01:08:13;25.90;57.50
41178;DHT22;26912;54.292;18.574;2022-10-16T01:10:48;26.00;57.30
41178;DHT22;26912;54.292;18.574;2022-10-16T01:13:27;25.90;57.60
41178;DHT22;26912;54.292;18.574;2022-10-16T01:18:46;25.80;57.70
41178;DHT22;26912;54.292;18.574;2022-10-16T01:21:24;25.60;57.90
41178;DHT22;26912;54.292;18.574;2022-10-16T01:24:21;25.50;58.50
41178;DHT22;26912;54.292;18.574;2022-10-16T01:27:05;25.70;58.50
41178;DHT22;26912;54.292;18.574;2022-10-16T01:29:54;26.10;57.70
41178;DHT22;26912;54.292;18.574;2022-10-16T01:32:33;25.90;57.90
41178;DHT22;26912;54.292;18.574;2022-10-16T01:35:25;25.90;58.00
41178;DHT22;26912;54.292;18.574;2022-10-16T01:38:12;25.70;58.40
41178;DHT22;26912;54.292;18.574;2022-10-16T01:40:48;25.70;58.50
41178;DHT22;26912;54.292;18.574;2022-10-16T01:43:22;25.70;58.60
41178;DHT22;26912;54.292;18.574;2022-10-16T01:45:50;25.80;58.60
41178;DHT22;26912;54.292;18.574;2022-10-16T01:48:18;25.70;58.60
41178;DHT22;26912;54.292;18.574;2022-10-16T01:51:09;25.90;58.50
41178;DHT22;26912;54.292;18.574;2022-10-16T01:53:37;26.10;58.40
41178;DHT22;26912;54.292;18.574;2022-10-16T01:56:06;26.30;57.90
41178;DHT22;26912;54.292;18.574;2022-10-16T01:58:37;26.50;57.50
41178;DHT22;26912;54.292;18.574;2022-10-16T02:01:09;26.40;56.90
41178;DHT22;26912;54.292;18.574;2022-10-16T02:03:39;26.20;57.50
41178;DHT22;26912;54.292;18.574;2022-10-16T02:06:07;26.20;57.60
41178;DHT22;26912;54.292;18.574;2022-10-16T02:08:33;26.30;57.40
41178;DHT22;26912;54.292;18.574;2022-10-16T02:11:01;26.30;57.40
41178;DHT22;26912;54.292;18.574;2022-10-16T02:13:30;26.20;57.20
41178;DHT22;26912;54.292;18.574;2022-10-16T02:15:58;26.10;57.60
41178;DHT22;26912;54.292;18.574;2022-10-16T02:18:25;26.10;57.40
41178;DHT22;26912;54.292;18.574;2022-10-16T02:21:03;26.20;57.20
41178;DHT22;26912;54.292;18.574;2022-10-16T02:24:02;26.20;57.10
41178;DHT22;26912;54.292;18.574;2022-10-16T02:29:17;26.30;56.90
41178;DHT22;26912;54.292;18.574;2022-10-16T02:31:50;26.10;56.80
41178;DHT22;26912;54.292;18.574;2022-10-16T02:34:19;25.90;57.20
41178;DHT22;26912;54.292;18.574;2022-10-16T02:36:48;25.90;57.30
41178;DHT22;26912;54.292;18.574;2022-10-16T02:39:16;25.90;57.30
41178;DHT22;26912;54.292;18.574;2022-10-16T02:41:44;25.90;57.30
41178;DHT22;26912;54.292;18.574;2022-10-16T02:44:10;25.70;57.70
41178;DHT22;26912;54.292;18.574;2022-10-16T02:46:37;25.70;57.70
41178;DHT22;26912;54.292;18.574;2022-10-16T02:49:04;25.60;57.90
41178;DHT22;26912;54.292;18.574;2022-10-16T02:51:31;25.50;58.20
41178;DHT22;26912;54.292;18.574;2022-10-16T02:53:57;25.60;58.10
41178;DHT22;26912;54.292;18.574;2022-10-16T02:56:24;25.70;58.10
41178;DHT22;26912;54.292;18.574;2022-10-16T02:58:51;25.70;58.00
41178;DHT22;26912;54.292;18.574;2022-10-16T03:01:17;25.80;57.80
41178;DHT22;26912;54.292;18.574;2022-10-16T03:03:43;25.70;58.10
41178;DHT22;26912;54.292;18.574;2022-10-16T03:06:10;25.80;58.00
41178;DHT22;26912;54.292;18.574;2022-10-16T03:08:36;25.90;58.00
41178;DHT22;26912;54.292;18.574;2022-10-16T03:11:03;26.00;58.30
41178;DHT22;26912;54.292;18.574;2022-10-16T03:13:29;26.10;57.50
41178;DHT22;26912;54.292;18.574;2022-10-16T03:15:56;26.30;57.00
41178;DHT22;26912;54.292;18.574;2022-10-16T03:18:22;26.40;56.60
41178;DHT22;26912;54.292;18.574;2022-10-16T03:20:49;26.60;56.40
41178;DHT22;26912;54.292;18.574;2022-10-16T03:23:15;26.60;56.00
41178;DHT22;26912;54.292;18.574;2022-10-16T03:25:42;26.60;56.00
41178;DHT22;26912;54.292;18.574;2022-10-16T03:28:08;26.80;55.80
41178;DHT22;26912;54.292;18.574;2022-10-16T03:30:35;27.00;55.70
41178;DHT22;26912;54.292;18.574;2022-10-16T03:33:01;27.00;55.60
41178;DHT22;26912;54.292;18.574;2022-10-16T03:35:28;27.00;55.30
41178;DHT22;26912;54.292;18.574;2022-10-16T03:37:55;26.70;55.30
41178;DHT22;26912;54.292;18.574;2022-10-16T03:40:22;26.50;55.60
41178;DHT22;26912;54.292;18.574;2022-10-16T03:42:49;26.40;55.90
41178;DHT22;26912;54.292;18.574;2022-10-16T03:45:16;26.20;56.40
41178;DHT22;26912;54.292;18.574;2022-10-16T03:47:42;26.20;56.70
41178;DHT22;26912;54.292;18.574;2022-10-16T03:50:09;26.00;57.00
41178;DHT22;26912;54.292;18.574;2022-10-16T03:52:36;25.90;57.30
41178;DHT22;26912;54.292;18.574;2022-10-16T03:55:03;25.80;57.60
41178;DHT22;26912;54.292;18.574;2022-10-16T03:57:30;25.70;57.70
41178;DHT22;26912;54.292;18.574;2022-10-16T03:59:56;25.80;58.00
41178;DHT22;26912;54.292;18.574;2022-10-16T04:02:23;25.90;57.70
41178;DHT22;26912;54.292;18.574;2022-10-16T04:04:50;25.80;57.90
41178;DHT22;26912;54.292;18.574;2022-10-16T04:07:16;26.10;57.70
41178;DHT22;26912;54.292;18.574;2022-10-16T04:09:43;26.30;57.40
41178;DHT22;26912;54.292;18.574;2022-10-16T04:12:09;26.40;57.20
41178;DHT22;26912;54.292;18.574;2022-10-16T04:14:36;26.60;56.60
41178;DHT22;26912;54.292;18.574;2022-10-16T04:17:02;26.70;56.20
41178;DHT22;26912;54.292;18.574;2022-10-16T04:19:29;26.70;56.10
41178;DHT22;26912;54.292;18.574;2022-10-16T04:21:55;26.70;56.00
41178;DHT22;26912;54.292;18.574;2022-10-16T04:24:22;26.40;56.10
41178;DHT22;26912;54.292;18.574;2022-10-16T04:26:48;26.10;56.70
41178;DHT22;26912;54.292;18.574;2022-10-16T04:29:15;26.10;57.20
41178;DHT22;26912;54.292;18.574;2022-10-16T04:31:41;26.10;57.20
41178;DHT22;26912;54.292;18.574;2022-10-16T04:34:08;26.10;57.20
41178;DHT22;26912;54.292;18.574;2022-10-16T04:36:34;26.20;57.10
41178;DHT22;26912;54.292;18.574;2022-10-16T04:39:01;26.00;57.40
41178;DHT22;26912;54.292;18.574;2022-10-16T04:41:27;26.00;57.60
41178;DHT22;26912;54.292;18.574;2022-10-16T04:43:54;25.90;57.70
41178;DHT22;26912;54.292;18.574;2022-10-16T04:46:20;25.90;57.90
41178;DHT22;26912;54.292;18.574;2022-10-16T04:48:47;25.90;57.90
41178;DHT22;26912;54.292;18.574;2022-10-16T04:51:13;26.00;57.80
41178;DHT22;26912;54.292;18.574;2022-10-16T04:53:40;26.00;57.80
41178;DHT22;26912;54.292;18.574;2022-10-16T04:56:06;26.00;57.70
41178;DHT22;26912;54.292;18.574;2022-10-16T04:58:33;25.90;57.90
41178;DHT22;26912;54.292;18.574;2022-10-16T05:00:59;25.90;58.00
41178;DHT22;26912;54.292;18.574;2022-10-16T05:03:26;25.80;58.10
41178;DHT22;26912;54.292;18.574;2022-10-16T05:05:52;25.60;58.60
41178;DHT22;26912;54.292;18.574;2022-10-16T05:08:19;25.80;58.60
41178;DHT22;26912;54.292;18.574;2022-10-16T05:10:45;25.90;58.40
41178;DHT22;26912;54.292;18.574;2022-10-16T05:13:12;25.90;58.30
41178;DHT22;26912;54.292;18.574;2022-10-16T05:15:39;25.80;58.20
41178;DHT22;26912;54.292;18.574;2022-10-16T05:18:06;25.80;58.20
41178;DHT22;26912;54.292;18.574;2022-10-16T05:20:32;25.90;58.30
41178;DHT22;26912;54.292;18.574;2022-10-16T05:22:59;25.90;58.10
41178;DHT22;26912;54.292;18.574;2022-10-16T05:25:25;25.90;58.00
41178;DHT22;26912;54.292;18.574;2022-10-16T05:27:52;25.90;58.10
41178;DHT22;26912;54.292;18.574;2022-10-16T05:30:18;25.90;58.10
41178;DHT22;26912;54.292;18.574;2022-10-16T05:32:49;26.00;58.00
41178;DHT22;26912;54.292;18.574;2022-10-16T05:35:16;26.10;58.00
41178;DHT22;26912;54.292;18.574;2022-10-16T05:37:44;26.20;57.40
41178;DHT22;26912;54.292;18.574;2022-10-16T05:40:11;26.30;57.20
41178;DHT22;26912;54.292;18.574;2022-10-16T05:42:39;26.30;57.30
41178;DHT22;26912;54.292;18.574;2022-10-16T05:45:08;26.30;57.20
41178;DHT22;26912;54.292;18.574;2022-10-16T05:47:35;26.10;57.30
41178;DHT22;26912;54.292;18.574;2022-10-16T05:50:02;26.10;57.50
41178;DHT22;26912;54.292;18.574;2022-10-16T05:52:30;26.10;57.30
41178;DHT22;26912;54.292;18.574;2022-10-16T05:54:57;26.10;57.40
41178;DHT22;26912;54.292;18.574;2022-10-16T05:57:23;25.90;57.60
41178;DHT22;26912;54.292;18.574;2022-10-16T05:59:49;25.90;57.80
41178;DHT22;26912;54.292;18.574;2022-10-16T06:02:16;25.80;58.10
41178;DHT22;26912;54.292;18.574;2022-10-16T06:04:42;25.50;58.40
41178;DHT22;26912;54.292;18.574;2022-10-16T06:07:09;25.60;58.70
41178;DHT22;26912;54.292;18.574;2022-10-16T06:09:35;25.90;58.60
41178;DHT22;26912;54.292;18.574;2022-10-16T06:12:02;26.10;58.00
41178;DHT22;26912;54.292;18.574;2022-10-16T06:14:29;26.20;57.40
41178;DHT22;26912;54.292;18.574;2022-10-16T06:16:55;26.40;57.20
41178;DHT22;26912;54.292;18.574;2022-10-16T06:19:22;26.40;56.80
41178;DHT22;26912;54.292;18.574;2022-10-16T06:21:49;26.50;56.70
41178;DHT22;26912;54.292;18.574;2022-10-16T06:24:15;26.60;56.60
41178;DHT22;26912;54.292;18.574;2022-10-16T06:26:42;26.70;56.60
41178;DHT22;26912;54.292;18.574;2022-10-16T06:29:08;26.60;56.30
41178;DHT22;26912;54.292;18.574;2022-10-16T06:31:35;26.40;56.50
41178;DHT22;26912;54.292;18.574;2022-10-16T06:34:02;26.50;56.50
41178;DHT22;26912;54.292;18.574;2022-10-16T06:36:30;26.30;56.50
41178;DHT22;26912;54.292;18.574;2022-10-16T06:38:57;25.70;57.70
41178;DHT22;26912;54.292;18.574;2022-10-16T06:41:23;25.60;58.10
41178;DHT22;26912;54.292;18.574;2022-10-16T06:43:50;25.50;58.50
41178;DHT22;26912;54.292;18.574;2022-10-16T06:46:23;25.50;58.70
41178;DHT22;26912;54.292;18.574;2022-10-16T06:48:50;25.70;58.50
41178;DHT22;26912;54.292;18.574;2022-10-16T06:51:21;25.70;58.60
41178;DHT22;26912;54.292;18.574;2022-10-16T06:53:50;25.60;58.60
41178;DHT22;26912;54.292;18.574;2022-10-16T06:56:20;25.60;58.90
41178;DHT22;26912;54.292;18.574;2022-10-16T06:58:47;25.80;58.90
41178;DHT22;26912;54.292;18.574;2022-10-16T07:01:15;25.90;58.70
41178;DHT22;26912;54.292;18.574;2022-10-16T07:03:43;26.10;58.60
41178;DHT22;26912;54.292;18.574;2022-10-16T07:06:13;26.30;58.30
41178;DHT22;26912;54.292;18.574;2022-10-16T07:08:42;26.40;57.90
41178;DHT22;26912;54.292;18.574;2022-10-16T07:11:11;26.60;57.60
41178;DHT22;26912;54.292;18.574;2022-10-16T07:13:40;26.50;57.50
41178;DHT22;26912;54.292;18.574;2022-10-16T07:16:08;26.70;57.50
41178;DHT22;26912;54.292;18.574;2022-10-16T07:18:36;26.80;57.40
41178;DHT22;26912;54.292;18.574;2022-10-16T07:21:10;26.90;56.90
41178;DHT22;26912;54.292;18.574;2022-10-16T07:23:37;26.90;57.00
41178;DHT22;26912;54.292;18.574;2022-10-16T07:26:05;26.80;57.00
41178;DHT22;26912;54.292;18.574;2022-10-16T07:28:32;26.50;57.30
41178;DHT22;26912;54.292;18.574;2022-10-16T07:31:04;26.30;57.70
41178;DHT22;26912;54.292;18.574;2022-10-16T07:33:32;26.40;58.10
41178;DHT22;26912;54.292;18.574;2022-10-16T07:35:59;26.40;57.70
41178;DHT22;26912;54.292;18.574;2022-10-16T07:38:26;26.60;57.80
41178;DHT22;26912;54.292;18.574;2022-10-16T07:41:00;26.80;57.50
41178;DHT22;26912;54.292;18.574;2022-10-16T07:43:28;26.70;57.10
41178;DHT22;26912;54.292;18.574;2022-10-16T07:45:54;26.70;57.30
41178;DHT22;26912;54.292;18.574;2022-10-16T07:48:22;26.90;57.10
41178;DHT22;26912;54.292;18.574;2022-10-16T07:50:49;26.90;57.10
41178;DHT22;26912;54.292;18.574;2022-10-16T07:53:15;26.80;57.20
41178;DHT22;26912;54.292;18.574;2022-10-16T07:55:42;26.60;57.30
41178;DHT22;26912;54.292;18.574;2022-10-16T07:58:09;26.70;57.60
41178;DHT22;26912;54.292;18.574;2022-10-16T08:00:36;26.50;57.70
41178;DHT22;26912;54.292;18.574;2022-10-16T08:03:03;26.70;57.90
41178;DHT22;26912;54.292;18.574;2022-10-16T08:05:31;27.00;57.60
41178;DHT22;26912;54.292;18.574;2022-10-16T08:07:58;27.10;57.10
41178;DHT22;26912;54.292;18.574;2022-10-16T08:10:27;27.10;56.80
41178;DHT22;26912;54.292;18.574;2022-10-16T08:12:54;27.20;56.80
41178;DHT22;26912;54.292;18.574;2022-10-16T08:15:21;27.20;56.80
41178;DHT22;26912;54.292;18.574;2022-10-16T08:17:58;27.30;56.50
41178;DHT22;26912;54.292;18.574;2022-10-16T08:20:25;27.10;56.50
41178;DHT22;26912;54.292;18.574;2022-10-16T08:22:52;27.00;56.90
41178;DHT22;26912;54.292;18.574;2022-10-16T08:25:19;27.10;57.10
41178;DHT22;26912;54.292;18.574;2022-10-16T08:27:45;26.90;56.80
41178;DHT22;26912;54.292;18.574;2022-10-16T08:30:12;26.70;57.40
41178;DHT22;26912;54.292;18.574;2022-10-16T08:32:38;26.70;57.80
41178;DHT22;26912;54.292;18.574;2022-10-16T08:35:06;26.80;57.50
41178;DHT22;26912;54.292;18.574;2022-10-16T08:37:33;26.40;57.70
41178;DHT22;26912;54.292;18.574;2022-10-16T08:39:59;26.50;58.20
41178;DHT22;26912;54.292;18.574;2022-10-16T08:45:21;26.30;58.40
41178;DHT22;26912;54.292;18.574;2022-10-16T08:47:51;26.30;58.20
41178;DHT22;26912;54.292;18.574;2022-10-16T08:50:25;26.10;59.20
41178;DHT22;26912;54.292;18.574;2022-10-16T08:52:54;26.00;59.10
41178;DHT22;26912;54.292;18.574;2022-10-16T08:58:00;26.10;59.10
41178;DHT22;26912;54.292;18.574;2022-10-16T09:00:27;26.20;59.10
41178;DHT22;26912;54.292;18.574;2022-10-16T09:03:16;26.30;58.70
41178;DHT22;26912;54.292;18.574;2022-10-16T09:23:10;26.80;58.70
41178;DHT22;26912;54.292;18.574;2022-10-16T09:25:39;26.80;58.30
41178;DHT22;26912;54.292;18.574;2022-10-16T09:28:09;27.00;57.30
41178;DHT22;26912;54.292;18.574;2022-10-16T09:30:37;26.60;58.00
41178;DHT22;26912;54.292;18.574;2022-10-16T09:33:08;26.50;58.30
41178;DHT22;26912;54.292;18.574;2022-10-16T09:35:39;26.40;58.70
41178;DHT22;26912;54.292;18.574;2022-10-16T09:38:07;26.40;58.60
41178;DHT22;26912;54.292;18.574;2022-10-16T09:40:36;26.30;59.40
41178;DHT22;26912;54.292;18.574;2022-10-16T09:43:20;26.30;59.20
41178;DHT22;26912;54.292;18.574;2022-10-16T09:46:01;26.30;59.10
41178;DHT22;26912;54.292;18.574;2022-10-16T09:48:37;26.50;59.10
41178;DHT22;26912;54.292;18.574;2022-10-16T09:51:06;26.60;58.50
41178;DHT22;26912;54.292;18.574;2022-10-16T09:53:46;26.60;58.70
41178;DHT22;26912;54.292;18.574;2022-10-16T09:56:22;26.80;58.40
41178;DHT22;26912;54.292;18.574;2022-10-16T09:58:55;27.00;58.00
41178;DHT22;26912;54.292;18.574;2022-10-16T10:01:26;26.50;58.20
41178;DHT22;26912;54.292;18.574;2022-10-16T10:03:57;26.40;58.80
41178;DHT22;26912;54.292;18.574;2022-10-16T10:06:37;26.40;59.20
41178;DHT22;26912;54.292;18.574;2022-10-16T10:09:19;26.50;58.90
41178;DHT22;26912;54.292;18.574;2022-10-16T10:12:02;26.60;58.90
41178;DHT22;26912;54.292;18.574;2022-10-16T10:14:35;26.90;58.40
41178;DHT22;26912;54.292;18.574;2022-10-16T10:22:43;26.80;59.30
41178;DHT22;26912;54.292;18.574;2022-10-16T10:30:19;26.10;59.80
41178;DHT22;26912;54.292;18.574;2022-10-16T10:33:31;25.90;60.40
41178;DHT22;26912;54.292;18.574;2022-10-16T10:36:09;26.00;60.20
41178;DHT22;26912;54.292;18.574;2022-10-16T10:38:53;25.70;61.40
41178;DHT22;26912;54.292;18.574;2022-10-16T10:41:53;26.30;60.60
41178;DHT22;26912;54.292;18.574;2022-10-16T10:44:30;26.10;60.60
41178;DHT22;26912;54.292;18.574;2022-10-16T10:52:55;26.20;60.80
41178;DHT22;26912;54.292;18.574;2022-10-16T10:55:51;26.50;59.90
41178;DHT22;26912;54.292;18.574;2022-10-16T10:58:44;26.40;59.60
41178;DHT22;26912;54.292;18.574;2022-10-16T11:01:17;26.60;59.60
41178;DHT22;26912;54.292;18.574;2022-10-16T11:04:08;27.00;59.70
41178;DHT22;26912;54.292;18.574;2022-10-16T11:06:51;27.00;59.00
41178;DHT22;26912;54.292;18.574;2022-10-16T11:09:23;26.90;58.50
41178;DHT22;26912;54.292;18.574;2022-10-16T11:12:12;26.80;59.10
41178;DHT22;26912;54.292;18.574;2022-10-16T11:17:45;27.40;59.40
41178;DHT22;26912;54.292;18.574;2022-10-16T11:26:18;27.90;57.90
41178;DHT22;26912;54.292;18.574;2022-10-16T11:28:49;28.10;57.10
41178;DHT22;26912;54.292;18.574;2022-10-16T11:31:32;28.30;56.20
41178;DHT22;26912;54.292;18.574;2022-10-16T11:34:36;28.30;56.10
41178;DHT22;26912;54.292;18.574;2022-10-16T11:37:16;28.20;56.00
41178;DHT22;26912;54.292;18.574;2022-10-16T11:39:44;28.30;56.40
41178;DHT22;26912;54.292;18.574;2022-10-16T11:42:27;28.50;56.30
41178;DHT22;26912;54.292;18.574;2022-10-16T11:45:16;28.60;55.60
41178;DHT22;26912;54.292;18.574;2022-10-16T11:48:00;28.50;55.50
41178;DHT22;26912;54.292;18.574;2022-10-16T11:53:05;28.40;55.20
41178;DHT22;26912;54.292;18.574;2022-10-16T11:55:42;28.40;56.00
41178;DHT22;26912;54.292;18.574;2022-10-16T11:58:27;28.70;55.70
41178;DHT22;26912;54.292;18.574;2022-10-16T12:01:10;28.70;54.70
41178;DHT22;26912;54.292;18.574;2022-10-16T12:04:05;28.60;54.80
41178;DHT22;26912;54.292;18.574;2022-10-16T12:07:24;28.40;55.10
41178;DHT22;26912;54.292;18.574;2022-10-16T12:09:33;28.80;54.80
41178;DHT22;26912;54.292;18.574;2022-10-16T12:12:00;29.10;54.70
41178;DHT22;26912;54.292;18.574;2022-10-16T12:19:22;29.50;53.00
41178;DHT22;26912;54.292;18.574;2022-10-16T12:21:51;29.40;53.10
41178;DHT22;26912;54.292;18.574;2022-10-16T12:24:38;29.40;52.60
41178;DHT22;26912;54.292;18.574;2022-10-16T12:27:29;29.30;52.80
41178;DHT22;26912;54.292;18.574;2022-10-16T12:30:02;29.40;53.10
41178;DHT22;26912;54.292;18.574;2022-10-16T12:32:37;29.30;52.60
41178;DHT22;26912;54.292;18.574;2022-10-16T12:35:17;29.50;53.00
41178;DHT22;26912;54.292;18.574;2022-10-16T12:37:44;30.00;52.50
41178;DHT22;26912;54.292;18.574;2022-10-16T12:40:23;30.10;51.30
41178;DHT22;26912;54.292;18.574;2022-10-16T12:42:51;30.10;51.20
41178;DHT22;26912;54.292;18.574;2022-10-16T12:45:29;30.40;50.60
41178;DHT22;26912;54.292;18.574;2022-10-16T12:47:59;30.50;49.80
41178;DHT22;26912;54.292;18.574;2022-10-16T12:50:30;30.80;49.20
41178;DHT22;26912;54.292;18.574;2022-10-16T12:52:58;31.30;50.00
41178;DHT22;26912;54.292;18.574;2022-10-16T12:55:25;31.80;47.00
41178;DHT22;26912;54.292;18.574;2022-10-16T13:00:30;31.90;47.10
41178;DHT22;26912;54.292;18.574;2022-10-16T13:12:12;33.40;43.30
41178;DHT22;26912;54.292;18.574;2022-10-16T13:15:03;33.60;42.30
41178;DHT22;26912;54.292;18.574;2022-10-16T13:22:37;32.10;43.00
41178;DHT22;26912;54.292;18.574;2022-10-16T13:27:56;31.00;45.20
41178;DHT22;26912;54.292;18.574;2022-10-16T13:30:31;30.60;45.60
41178;DHT22;26912;54.292;18.574;2022-10-16T13:33:04;30.30;46.00
41178;DHT22;26912;54.292;18.574;2022-10-16T13:35:33;30.00;46.80
41178;DHT22;26912;54.292;18.574;2022-10-16T13:38:20;30.00;47.20
41178;DHT22;26912;54.292;18.574;2022-10-16T13:43:19;29.60;48.30
41178;DHT22;26912;54.292;18.574;2022-10-16T13:45:58;29.50;48.50
41178;DHT22;26912;54.292;18.574;2022-10-16T13:48:25;29.10;48.80
41178;DHT22;26912;54.292;18.574;2022-10-16T13:51:10;29.00;49.30
41178;DHT22;26912;54.292;18.574;2022-10-16T13:53:38;29.10;49.80
41178;DHT22;26912;54.292;18.574;2022-10-16T13:56:07;28.90;49.50
41178;DHT22;26912;54.292;18.574;2022-10-16T13:58:36;28.80;50.30
41178;DHT22;26912;54.292;18.574;2022-10-16T14:01:25;29.00;50.40
41178;DHT22;26912;54.292;18.574;2022-10-16T14:03:52;29.30;49.90
41178;DHT22;26912;54.292;18.574;2022-10-16T14:06:22;29.40;49.80
41178;DHT22;26912;54.292;18.574;2022-10-16T14:09:01;29.50;49.70
41178;DHT22;26912;54.292;18.574;2022-10-16T14:11:30;29.50;49.60
41178;DHT22;26912;54.292;18.574;2022-10-16T14:13:57;29.70;49.60
41178;DHT22;26912;54.292;18.574;2022-10-16T14:16:30;29.50;49.60
41178;DHT22;26912;54.292;18.574;2022-10-16T14:21:25;29.80;49.60
41178;DHT22;26912;54.292;18.574;2022-10-16T14:23:53;30.00;49.30
41178;DHT22;26912;54.292;18.574;2022-10-16T14:26:23;30.00;49.30
41178;DHT22;26912;54.292;18.574;2022-10-16T14:29:14;30.10;49.30
41178;DHT22;26912;54.292;18.574;2022-10-16T14:31:41;30.20;49.30
41178;DHT22;26912;54.292;18.574;2022-10-16T14:34:32;30.10;49.20
41178;DHT22;26912;54.292;18.574;2022-10-16T14:37:02;30.00;49.20
41178;DHT22;26912;54.292;18.574;2022-10-16T14:39:33;29.90;49.70
41178;DHT22;26912;54.292;18.574;2022-10-16T14:42:00;30.00;49.90
41178;DHT22;26912;54.292;18.574;2022-10-16T14:44:32;29.80;50.00
41178;DHT22;26912;54.292;18.574;2022-10-16T14:47:08;29.90;50.20
41178;DHT22;26912;54.292;18.574;2022-10-16T14:49:35;30.00;50.10
41178;DHT22;26912;54.292;18.574;2022-10-16T14:52:08;30.00;50.10
41178;DHT22;26912;54.292;18.574;2022-10-16T14:54:34;30.00;50.00
41178;DHT22;26912;54.292;18.574;2022-10-16T14:57:01;29.90;49.90
41178;DHT22;26912;54.292;18.574;2022-10-16T15:02:11;30.00;50.20
41178;DHT22;26912;54.292;18.574;2022-10-16T15:04:42;29.90;50.00
41178;DHT22;26912;54.292;18.574;2022-10-16T15:07:08;29.70;50.10
41178;DHT22;26912;54.292;18.574;2022-10-16T15:09:35;29.40;50.50
41178;DHT22;26912;54.292;18.574;2022-10-16T15:12:02;29.20;50.90
41178;DHT22;26912;54.292;18.574;2022-10-16T15:14:28;29.20;51.20
41178;DHT22;26912;54.292;18.574;2022-10-16T15:16:54;29.10;51.30
41178;DHT22;26912;54.292;18.574;2022-10-16T15:19:21;29.00;51.30
41178;DHT22;26912;54.292;18.574;2022-10-16T15:21:47;29.00;51.60
41178;DHT22;26912;54.292;18.574;2022-10-16T15:24:15;28.90;51.50
41178;DHT22;26912;54.292;18.574;2022-10-16T15:26:41;28.60;51.90
41178;DHT22;26912;54.292;18.574;2022-10-16T15:29:08;28.60;52.00
41178;DHT22;26912;54.292;18.574;2022-10-16T15:31:34;28.40;52.40
41178;DHT22;26912;54.292;18.574;2022-10-16T15:34:01;28.40;52.50
41178;DHT22;26912;54.292;18.574;2022-10-16T15:36:33;28.40;52.60
41178;DHT22;26912;54.292;18.574;2022-10-16T15:39:00;28.50;52.40
41178;DHT22;26912;54.292;18.574;2022-10-16T15:41:27;28.50;52.10
41178;DHT22;26912;54.292;18.574;2022-10-16T15:43:53;28.50;52.40
41178;DHT22;26912;54.292;18.574;2022-10-16T15:46:22;28.30;52.40
41178;DHT22;26912;54.292;18.574;2022-10-16T15:48:50;28.20;52.30
41178;DHT22;26912;54.292;18.574;2022-10-16T15:51:18;28.30;52.20
41178;DHT22;26912;54.292;18.574;2022-10-16T15:53:44;28.30;52.00
41178;DHT22;26912;54.292;18.574;2022-10-16T15:56:13;28.30;51.80
41178;DHT22;26912;54.292;18.574;2022-10-16T15:58:43;28.20;51.70
41178;DHT22;26912;54.292;18.574;2022-10-16T16:01:10;28.20;52.00
41178;DHT22;26912;54.292;18.574;2022-10-16T16:03:38;28.10;52.50
41178;DHT22;26912;54.292;18.574;2022-10-16T16:06:08;28.00;52.40
41178;DHT22;26912;54.292;18.574;2022-10-16T16:08:35;28.00;52.10
41178;DHT22;26912;54.292;18.574;2022-10-16T16:11:08;28.00;51.90
41178;DHT22;26912;54.292;18.574;2022-10-16T16:13:35;28.00;51.90
41178;DHT22;26912;54.292;18.574;2022-10-16T16:16:13;27.90;52.40
41178;DHT22;26912;54.292;18.574;2022-10-16T16:18:41;27.80;52.20
41178;DHT22;26912;54.292;18.574;2022-10-16T16:21:10;27.70;51.80
41178;DHT22;26912;54.292;18.574;2022-10-16T16:23:37;27.70;51.60
41178;DHT22;26912;54.292;18.574;2022-10-16T16:26:13;27.70;52.10
41178;DHT22;26912;54.292;18.574;2022-10-16T16:28:40;27.60;51.80
41178;DHT22;26912;54.292;18.574;2022-10-16T16:31:08;27.60;51.90
41178;DHT22;26912;54.292;18.574;2022-10-16T16:33:35;27.50;51.90
41178;DHT22;26912;54.292;18.574;2022-10-16T16:36:03;27.50;51.80
41178;DHT22;26912;54.292;18.574;2022-10-16T16:38:32;27.40;51.90
41178;DHT22;26912;54.292;18.574;2022-10-16T16:40:58;27.40;51.90
41178;DHT22;26912;54.292;18.574;2022-10-16T16:43:26;27.30;52.50
41178;DHT22;26912;54.292;18.574;2022-10-16T16:45:54;27.00;52.60
41178;DHT22;26912;54.292;18.574;2022-10-16T16:48:21;27.10;53.10
41178;DHT22;26912;54.292;18.574;2022-10-16T16:50:48;27.10;53.10
41178;DHT22;26912;54.292;18.574;2022-10-16T16:53:15;27.30;53.20
41178;DHT22;26912;54.292;18.574;2022-10-16T16:55:42;27.30;52.90
41178;DHT22;26912;54.292;18.574;2022-10-16T16:58:08;27.20;52.80
41178;DHT22;26912;54.292;18.574;2022-10-16T17:00:35;27.20;52.90
41178;DHT22;26912;54.292;18.574;2022-10-16T17:03:02;27.10;52.70
41178;DHT22;26912;54.292;18.574;2022-10-16T17:05:28;27.00;53.10